sensor_id;sensor_type;location;lat;lon;timestamp;pressure;altitude;pressure_sealevel;temperature;humidity
50852;BME280;43953;45.508;-122.806;2023-04-08T00:00:16;100407.28;;;16.10;51.55
50852;BME280;43953;45.508;-122.806;2023-04-08T00:00:48;100403.16;;;16.08;51.39
50852;BME280;43953;45.508;-122.806;2023-04-08T00:01:20;100408.34;;;16.09;51.19
50852;BME280;43953;45.508;-122.806;2023-04-08T00:01:51;100411.88;;;16.10;51.18
50852;BME280;43953;45.508;-122.806;2023-04-08T00:02:23;100408.34;;;16.09;51.39
50852;BME280;43953;45.508;-122.806;2023-04-08T00:02:55;100411.88;;;16.10;51.43
50852;BME280;43953;45.508;-122.806;2023-04-08T00:03:26;100409.16;;;16.10;51.47
50852;BME280;43953;45.508;-122.806;2023-04-08T00:03:58;100411.88;;;16.10;51.32
50852;BME280;43953;45.508;-122.806;2023-04-08T00:04:30;100411.06;;;16.09;51.34
50852;BME280;43953;45.508;-122.806;2023-04-08T00:05:02;100415.94;;;16.07;51.14
50852;BME280;43953;45.508;-122.806;2023-04-08T00:05:33;100421.09;;;16.09;51.21
50852;BME280;43953;45.508;-122.806;2023-04-08T00:06:05;100423.81;;;16.09;51.19
50852;BME280;43953;45.508;-122.806;2023-04-08T00:06:38;100418.38;;;16.09;51.18
50852;BME280;43953;45.508;-122.806;2023-04-08T00:07:10;100415.94;;;16.07;50.78
50852;BME280;43953;45.508;-122.806;2023-04-08T00:07:41;100422.44;;;16.06;50.77
50852;BME280;43953;45.508;-122.806;2023-04-08T00:08:14;100423.50;;;16.05;50.99
50852;BME280;43953;45.508;-122.806;2023-04-08T00:08:46;100418.88;;;16.06;50.90
50852;BME280;43953;45.508;-122.806;2023-04-08T00:09:17;100423.50;;;16.05;50.56
50852;BME280;43953;45.508;-122.806;2023-04-08T00:09:49;100423.50;;;16.05;50.71
50852;BME280;43953;45.508;-122.806;2023-04-08T00:10:21;100422.44;;;16.06;50.98
50852;BME280;43953;45.508;-122.806;2023-04-08T00:10:53;100420.53;;;16.07;50.51
50852;BME280;43953;45.508;-122.806;2023-04-08T00:11:25;100426.78;;;16.07;50.56
50852;BME280;43953;45.508;-122.806;2023-04-08T00:11:56;100425.97;;;16.07;50.32
50852;BME280;43953;45.508;-122.806;2023-04-08T00:12:28;100424.88;;;16.08;50.27
50852;BME280;43953;45.508;-122.806;2023-04-08T00:13:00;100423.25;;;16.07;50.27
50852;BME280;43953;45.508;-122.806;2023-04-08T00:13:32;100428.41;;;16.08;50.38
50852;BME280;43953;45.508;-122.806;2023-04-08T00:14:03;100424.66;;;16.09;50.38
50852;BME280;43953;45.508;-122.806;2023-04-08T00:14:35;100426.28;;;16.10;50.26
50852;BME280;43953;45.508;-122.806;2023-04-08T00:15:08;100427.09;;;16.11;50.03
50852;BME280;43953;45.508;-122.806;2023-04-08T00:15:40;100419.78;;;16.11;50.11
50852;BME280;43953;45.508;-122.806;2023-04-08T00:16:12;100417.91;;;16.12;49.93
50852;BME280;43953;45.508;-122.806;2023-04-08T00:16:44;100428.75;;;16.12;49.92
50852;BME280;43953;45.508;-122.806;2023-04-08T00:17:16;100429.81;;;16.11;49.83
50852;BME280;43953;45.508;-122.806;2023-04-08T00:17:48;100427.09;;;16.11;50.08
50852;BME280;43953;45.508;-122.806;2023-04-08T00:18:19;100421.66;;;16.11;50.03
50852;BME280;43953;45.508;-122.806;2023-04-08T00:18:51;100432.53;;;16.11;49.98
50852;BME280;43953;45.508;-122.806;2023-04-08T00:19:23;100429.00;;;16.10;50.03
50852;BME280;43953;45.508;-122.806;2023-04-08T00:19:55;100430.91;;;16.10;50.00
50852;BME280;43953;45.508;-122.806;2023-04-08T00:20:27;100428.19;;;16.10;50.11
50852;BME280;43953;45.508;-122.806;2023-04-08T00:20:59;100431.72;;;16.10;50.06
50852;BME280;43953;45.508;-122.806;2023-04-08T00:21:30;100430.91;;;16.10;50.30
50852;BME280;43953;45.508;-122.806;2023-04-08T00:22:02;100437.97;;;16.11;50.23
50852;BME280;43953;45.508;-122.806;2023-04-08T00:22:34;100432.53;;;16.11;50.19
50852;BME280;43953;45.508;-122.806;2023-04-08T00:23:06;100436.91;;;16.12;49.94
50852;BME280;43953;45.508;-122.806;2023-04-08T00:23:38;100435.00;;;16.12;49.77
50852;BME280;43953;45.508;-122.806;2023-04-08T00:24:10;100434.75;;;16.14;49.92
50852;BME280;43953;45.508;-122.806;2023-04-08T00:24:42;100432.84;;;16.14;49.94
50852;BME280;43953;45.508;-122.806;2023-04-08T00:25:13;100436.41;;;16.15;49.33
50852;BME280;43953;45.508;-122.806;2023-04-08T00:25:45;100429.31;;;16.14;49.10
50852;BME280;43953;45.508;-122.806;2023-04-08T00:26:17;100434.75;;;16.14;49.05
50852;BME280;43953;45.508;-122.806;2023-04-08T00:26:49;100430.41;;;16.13;48.94
50852;BME280;43953;45.508;-122.806;2023-04-08T00:27:20;100436.91;;;16.12;48.76
50852;BME280;43953;45.508;-122.806;2023-04-08T00:27:52;100436.91;;;16.12;48.70
50852;BME280;43953;45.508;-122.806;2023-04-08T00:28:24;100437.97;;;16.11;48.63
50852;BME280;43953;45.508;-122.806;2023-04-08T00:28:55;100443.66;;;16.09;48.16
50852;BME280;43953;45.508;-122.806;2023-04-08T00:29:27;100436.03;;;16.06;48.18
50852;BME280;43953;45.508;-122.806;2023-04-08T00:29:59;100439.78;;;16.05;47.92
50852;BME280;43953;45.508;-122.806;2023-04-08T00:30:31;100443.59;;;16.04;48.08
50852;BME280;43953;45.508;-122.806;2023-04-08T00:31:03;100436.53;;;16.03;48.18
50852;BME280;43953;45.508;-122.806;2023-04-08T00:31:35;100440.06;;;16.04;48.13
50852;BME280;43953;45.508;-122.806;2023-04-08T00:32:07;100441.69;;;16.05;48.18
50852;BME280;43953;45.508;-122.806;2023-04-08T00:32:38;100442.78;;;16.04;48.06
50852;BME280;43953;45.508;-122.806;2023-04-08T00:33:10;100443.81;;;16.03;47.93
50852;BME280;43953;45.508;-122.806;2023-04-08T00:33:42;100443.81;;;16.03;47.92
50852;BME280;43953;45.508;-122.806;2023-04-08T00:34:13;100443.81;;;16.03;48.07
50852;BME280;43953;45.508;-122.806;2023-04-08T00:34:45;100447.38;;;16.03;47.88
50852;BME280;43953;45.508;-122.806;2023-04-08T00:35:17;100446.53;;;16.03;47.75
50852;BME280;43953;45.508;-122.806;2023-04-08T00:35:49;100450.34;;;16.02;47.98
50852;BME280;43953;45.508;-122.806;2023-04-08T00:36:21;100453.88;;;16.02;47.96
50852;BME280;43953;45.508;-122.806;2023-04-08T00:36:53;100457.66;;;16.01;47.99
50852;BME280;43953;45.508;-122.806;2023-04-08T00:37:24;100455.78;;;16.02;48.04
50852;BME280;43953;45.508;-122.806;2023-04-08T00:37:56;100459.56;;;16.01;48.29
50852;BME280;43953;45.508;-122.806;2023-04-08T00:38:28;100459.56;;;16.01;48.29
50852;BME280;43953;45.508;-122.806;2023-04-08T00:38:59;100454.13;;;16.01;48.42
50852;BME280;43953;45.508;-122.806;2023-04-08T00:39:31;100463.34;;;16.00;48.35
50852;BME280;43953;45.508;-122.806;2023-04-08T00:40:03;100458.75;;;16.00;48.39
50852;BME280;43953;45.508;-122.806;2023-04-08T00:40:35;100459.56;;;16.01;48.32
50852;BME280;43953;45.508;-122.806;2023-04-08T00:41:07;100458.75;;;16.00;48.33
50852;BME280;43953;45.508;-122.806;2023-04-08T00:41:39;100457.66;;;16.01;47.98
50852;BME280;43953;45.508;-122.806;2023-04-08T00:42:10;100459.81;;;15.99;47.59
50852;BME280;43953;45.508;-122.806;2023-04-08T00:42:42;100463.59;;;15.98;47.84
50852;BME280;43953;45.508;-122.806;2023-04-08T00:43:14;100459.22;;;15.97;47.73
50852;BME280;43953;45.508;-122.806;2023-04-08T00:43:46;100459.72;;;15.94;47.57
50852;BME280;43953;45.508;-122.806;2023-04-08T00:44:18;100463.53;;;15.93;47.60
50852;BME280;43953;45.508;-122.806;2023-04-08T00:44:50;100460.00;;;15.92;47.89
50852;BME280;43953;45.508;-122.806;2023-04-08T00:45:22;100464.59;;;15.92;48.16
50852;BME280;43953;45.508;-122.806;2023-04-08T00:45:54;100463.78;;;15.91;48.07
50852;BME280;43953;45.508;-122.806;2023-04-08T00:46:25;100463.78;;;15.91;48.12
50852;BME280;43953;45.508;-122.806;2023-04-08T00:46:57;100462.94;;;15.91;48.12
50852;BME280;43953;45.508;-122.806;2023-04-08T00:47:29;100465.09;;;15.89;47.92
50852;BME280;43953;45.508;-122.806;2023-04-08T00:48:02;100464.28;;;15.88;47.98
50852;BME280;43953;45.508;-122.806;2023-04-08T00:48:34;100463.72;;;15.86;48.23
50852;BME280;43953;45.508;-122.806;2023-04-08T00:49:06;100463.72;;;15.86;48.31
50852;BME280;43953;45.508;-122.806;2023-04-08T00:49:38;100467.50;;;15.85;48.20
50852;BME280;43953;45.508;-122.806;2023-04-08T00:50:10;100460.41;;;15.84;48.13
50852;BME280;43953;45.508;-122.806;2023-04-08T00:50:45;100460.41;;;15.84;48.18
50852;BME280;43953;45.508;-122.806;2023-04-08T00:51:18;100463.13;;;15.84;48.28
50852;BME280;43953;45.508;-122.806;2023-04-08T00:51:49;100470.69;;;15.82;47.89
50852;BME280;43953;45.508;-122.806;2023-04-08T00:52:21;100456.56;;;15.80;47.94
50852;BME280;43953;45.508;-122.806;2023-04-08T00:52:53;100464.94;;;15.79;48.30
50852;BME280;43953;45.508;-122.806;2023-04-08T00:53:25;100472.28;;;15.78;48.46
50852;BME280;43953;45.508;-122.806;2023-04-08T00:53:56;100466.84;;;15.78;48.23
50852;BME280;43953;45.508;-122.806;2023-04-08T00:54:29;100464.41;;;15.77;47.84
50852;BME280;43953;45.508;-122.806;2023-04-08T00:55:02;100464.41;;;15.77;47.92
50852;BME280;43953;45.508;-122.806;2023-04-08T00:55:34;100460.84;;;15.76;47.89
50852;BME280;43953;45.508;-122.806;2023-04-08T00:56:06;100467.34;;;15.75;48.07
50852;BME280;43953;45.508;-122.806;2023-04-08T00:56:37;100461.34;;;15.73;48.03
50852;BME280;43953;45.508;-122.806;2023-04-08T00:57:09;100469.47;;;15.73;47.96
50852;BME280;43953;45.508;-122.806;2023-04-08T00:57:41;100469.47;;;15.73;47.84
50852;BME280;43953;45.508;-122.806;2023-04-08T00:58:13;100468.66;;;15.73;48.02
50852;BME280;43953;45.508;-122.806;2023-04-08T00:58:45;100475.75;;;15.74;48.08
50852;BME280;43953;45.508;-122.806;2023-04-08T00:59:17;100470.31;;;15.74;47.85
50852;BME280;43953;45.508;-122.806;2023-04-08T00:59:49;100474.66;;;15.75;47.84
50852;BME280;43953;45.508;-122.806;2023-04-08T01:00:21;100472.19;;;15.73;47.97
50852;BME280;43953;45.508;-122.806;2023-04-08T01:01:06;100477.88;;;15.72;47.85
50852;BME280;43953;45.508;-122.806;2023-04-08T01:02:05;100477.56;;;15.68;47.08
50852;BME280;43953;45.508;-122.806;2023-04-08T01:02:54;100474.75;;;15.63;47.36
50852;BME280;43953;45.508;-122.806;2023-04-08T01:03:56;100477.94;;;15.60;47.45
50852;BME280;43953;45.508;-122.806;2023-04-08T01:05:04;100485.78;;;15.56;47.79
50852;BME280;43953;45.508;-122.806;2023-04-08T01:06:31;100494.63;;;15.52;47.42
50852;BME280;43953;45.508;-122.806;2023-04-08T01:07:17;100489.22;;;15.52;47.84
50852;BME280;43953;45.508;-122.806;2023-04-08T01:07:50;100487.56;;;15.51;47.98
50852;BME280;43953;45.508;-122.806;2023-04-08T01:08:25;100479.66;;;15.49;48.48
50852;BME280;43953;45.508;-122.806;2023-04-08T01:08:59;100490.53;;;15.49;48.27
50852;BME280;43953;45.508;-122.806;2023-04-08T01:09:38;100490.78;;;15.47;48.12
50852;BME280;43953;45.508;-122.806;2023-04-08T01:10:22;100480.97;;;15.46;47.79
50852;BME280;43953;45.508;-122.806;2023-04-08T01:11:00;100486.41;;;15.46;48.08
50852;BME280;43953;45.508;-122.806;2023-04-08T01:11:33;100490.19;;;15.45;47.92
50852;BME280;43953;45.508;-122.806;2023-04-08T01:12:08;100490.19;;;15.45;48.03
50852;BME280;43953;45.508;-122.806;2023-04-08T01:12:48;100485.84;;;15.44;48.21
50852;BME280;43953;45.508;-122.806;2023-04-08T01:13:22;100489.63;;;15.43;48.63
50852;BME280;43953;45.508;-122.806;2023-04-08T01:13:55;100495.31;;;15.42;48.65
50852;BME280;43953;45.508;-122.806;2023-04-08T01:14:27;100491.50;;;15.43;48.77
50852;BME280;43953;45.508;-122.806;2023-04-08T01:15:07;100498.25;;;15.40;48.20
50852;BME280;43953;45.508;-122.806;2023-04-08T01:15:42;100500.41;;;15.38;48.63
50852;BME280;43953;45.508;-122.806;2023-04-08T01:16:15;100504.16;;;15.37;48.47
50852;BME280;43953;45.508;-122.806;2023-04-08T01:16:48;100500.91;;;15.35;48.94
50852;BME280;43953;45.508;-122.806;2023-04-08T01:17:21;100509.25;;;15.34;48.88
50852;BME280;43953;45.508;-122.806;2023-04-08T01:17:54;100499.22;;;15.34;48.40
50852;BME280;43953;45.508;-122.806;2023-04-08T01:18:28;100501.38;;;15.32;48.53
50852;BME280;43953;45.508;-122.806;2023-04-08T01:19:01;100513.88;;;15.33;48.56
50852;BME280;43953;45.508;-122.806;2023-04-08T01:19:36;100505.16;;;15.31;48.94
50852;BME280;43953;45.508;-122.806;2023-04-08T01:20:09;100512.69;;;15.29;49.15
50852;BME280;43953;45.508;-122.806;2023-04-08T01:20:43;100508.34;;;15.28;49.20
50852;BME280;43953;45.508;-122.806;2023-04-08T01:21:17;100514.84;;;15.27;49.17
50852;BME280;43953;45.508;-122.806;2023-04-08T01:21:51;100509.44;;;15.27;49.11
50852;BME280;43953;45.508;-122.806;2023-04-08T01:23:53;100515.91;;;15.26;48.40
50852;BME280;43953;45.508;-122.806;2023-04-08T01:24:29;100515.34;;;15.24;48.47
50852;BME280;43953;45.508;-122.806;2023-04-08T01:25:11;100522.91;;;15.22;48.37
50852;BME280;43953;45.508;-122.806;2023-04-08T01:25:54;100514.16;;;15.20;48.39
50852;BME280;43953;45.508;-122.806;2023-04-08T01:26:26;100529.63;;;15.19;48.47
50852;BME280;43953;45.508;-122.806;2023-04-08T01:26:59;100528.00;;;15.18;48.70
50852;BME280;43953;45.508;-122.806;2023-04-08T01:27:31;100522.78;;;15.17;48.86
50852;BME280;43953;45.508;-122.806;2023-04-08T01:28:10;100529.28;;;15.16;49.00
50852;BME280;43953;45.508;-122.806;2023-04-08T01:28:42;100525.50;;;15.17;49.06
50852;BME280;43953;45.508;-122.806;2023-04-08T01:29:15;100529.28;;;15.16;49.26
50852;BME280;43953;45.508;-122.806;2023-04-08T01:29:47;100527.66;;;15.15;49.46
50852;BME280;43953;45.508;-122.806;2023-04-08T01:30:19;100533.91;;;15.15;49.53
50852;BME280;43953;45.508;-122.806;2023-04-08T01:30:55;100533.91;;;15.15;49.51
50852;BME280;43953;45.508;-122.806;2023-04-08T01:31:28;100530.94;;;15.17;48.99
50852;BME280;43953;45.508;-122.806;2023-04-08T01:32:02;100540.16;;;15.16;48.68
50852;BME280;43953;45.508;-122.806;2023-04-08T01:32:35;100533.09;;;15.15;48.61
50852;BME280;43953;45.508;-122.806;2023-04-08T01:33:14;100533.56;;;15.12;48.39
50852;BME280;43953;45.508;-122.806;2023-04-08T01:33:46;100545.25;;;15.12;48.56
50852;BME280;43953;45.508;-122.806;2023-04-08T01:34:20;100540.84;;;15.11;48.60
50852;BME280;43953;45.508;-122.806;2023-04-08T01:34:53;100541.94;;;15.10;48.74
50852;BME280;43953;45.508;-122.806;2023-04-08T01:35:26;100543.00;;;15.09;48.79
50852;BME280;43953;45.508;-122.806;2023-04-08T01:35:59;100543.25;;;15.08;48.91
50852;BME280;43953;45.508;-122.806;2023-04-08T01:36:32;100539.97;;;15.06;48.48
50852;BME280;43953;45.508;-122.806;2023-04-08T01:37:07;100539.97;;;15.06;48.76
50852;BME280;43953;45.508;-122.806;2023-04-08T01:37:39;100538.91;;;15.07;48.86
50852;BME280;43953;45.508;-122.806;2023-04-08T01:38:17;100551.63;;;15.06;48.12
50852;BME280;43953;45.508;-122.806;2023-04-08T01:38:50;100542.91;;;15.04;48.50
50852;BME280;43953;45.508;-122.806;2023-04-08T01:39:22;100547.50;;;15.04;48.48
50852;BME280;43953;45.508;-122.806;2023-04-08T01:39:55;100545.88;;;15.02;48.44
50852;BME280;43953;45.508;-122.806;2023-04-08T01:40:27;100548.81;;;15.01;48.51
50852;BME280;43953;45.508;-122.806;2023-04-08T01:40:59;100542.81;;;14.99;48.50
50852;BME280;43953;45.508;-122.806;2023-04-08T01:41:33;100542.59;;;15.00;48.26
50852;BME280;43953;45.508;-122.806;2023-04-08T01:42:07;100551.19;;;14.97;48.41
50852;BME280;43953;45.508;-122.806;2023-04-08T01:42:41;100546.81;;;14.96;48.37
50852;BME280;43953;45.508;-122.806;2023-04-08T01:43:16;100547.91;;;14.95;48.53
50852;BME280;43953;45.508;-122.806;2023-04-08T01:43:48;100550.59;;;14.95;48.57
50852;BME280;43953;45.508;-122.806;2023-04-08T01:44:21;100550.88;;;14.94;48.58
50852;BME280;43953;45.508;-122.806;2023-04-08T01:44:56;100553.56;;;14.94;48.76
50852;BME280;43953;45.508;-122.806;2023-04-08T01:45:29;100554.88;;;14.91;48.99
50852;BME280;43953;45.508;-122.806;2023-04-08T01:46:01;100559.00;;;14.94;48.89
50852;BME280;43953;45.508;-122.806;2023-04-08T01:46:33;100562.75;;;14.93;48.51
50852;BME280;43953;45.508;-122.806;2023-04-08T01:47:06;100556.78;;;14.91;48.53
50852;BME280;43953;45.508;-122.806;2023-04-08T01:47:40;100564.53;;;14.87;48.74
50852;BME280;43953;45.508;-122.806;2023-04-08T01:48:13;100561.81;;;14.87;48.79
50852;BME280;43953;45.508;-122.806;2023-04-08T01:48:45;100563.50;;;14.88;48.80
50852;BME280;43953;45.508;-122.806;2023-04-08T01:49:19;100561.00;;;14.87;48.83
50852;BME280;43953;45.508;-122.806;2023-04-08T01:49:52;100572.09;;;14.85;48.71
50852;BME280;43953;45.508;-122.806;2023-04-08T01:50:25;100571.25;;;14.85;48.66
50852;BME280;43953;45.508;-122.806;2023-04-08T01:50:58;100568.00;;;14.83;48.88
50852;BME280;43953;45.508;-122.806;2023-04-08T01:51:30;100569.88;;;14.82;48.97
50852;BME280;43953;45.508;-122.806;2023-04-08T01:52:04;100569.03;;;14.82;49.05
50852;BME280;43953;45.508;-122.806;2023-04-08T01:52:37;100567.16;;;14.82;48.96
50852;BME280;43953;45.508;-122.806;2023-04-08T01:53:11;100570.91;;;14.81;49.10
50852;BME280;43953;45.508;-122.806;2023-04-08T01:53:43;100563.06;;;14.79;49.23
50852;BME280;43953;45.508;-122.806;2023-04-08T01:54:15;100568.47;;;14.79;49.43
50852;BME280;43953;45.508;-122.806;2023-04-08T01:54:47;100569.28;;;14.80;49.38
50852;BME280;43953;45.508;-122.806;2023-04-08T01:55:19;100568.47;;;14.79;49.18
50852;BME280;43953;45.508;-122.806;2023-04-08T01:55:56;100563.88;;;14.80;49.18
50852;BME280;43953;45.508;-122.806;2023-04-08T01:56:30;100579.31;;;14.79;49.26
50852;BME280;43953;45.508;-122.806;2023-04-08T01:57:07;100567.06;;;14.77;49.24
50852;BME280;43953;45.508;-122.806;2023-04-08T01:57:51;100568.94;;;14.76;49.47
50852;BME280;43953;45.508;-122.806;2023-04-08T01:58:24;100561.03;;;14.75;48.70
50852;BME280;43953;45.508;-122.806;2023-04-08T01:59:00;100565.31;;;14.71;48.88
50852;BME280;43953;45.508;-122.806;2023-04-08T01:59:34;100563.91;;;14.68;49.15
50852;BME280;43953;45.508;-122.806;2023-04-08T02:00:09;100563.91;;;14.68;49.27
50852;BME280;43953;45.508;-122.806;2023-04-08T02:00:43;100567.69;;;14.67;49.27
50852;BME280;43953;45.508;-122.806;2023-04-08T02:01:18;100563.09;;;14.68;48.98
50852;BME280;43953;45.508;-122.806;2023-04-08T02:01:52;100564.97;;;14.67;49.11
50852;BME280;43953;45.508;-122.806;2023-04-08T02:02:25;100574.41;;;14.65;48.91
50852;BME280;43953;45.508;-122.806;2023-04-08T02:02:58;100577.34;;;14.63;49.02
50852;BME280;43953;45.508;-122.806;2023-04-08T02:03:30;100576.78;;;14.61;49.10
50852;BME280;43953;45.508;-122.806;2023-04-08T02:04:03;100574.28;;;14.60;49.27
50852;BME280;43953;45.508;-122.806;2023-04-08T02:04:35;100577.00;;;14.60;49.38
50852;BME280;43953;45.508;-122.806;2023-04-08T02:05:07;100585.13;;;14.60;49.69
50852;BME280;43953;45.508;-122.806;2023-04-08T02:05:40;100575.59;;;14.57;49.93
50852;BME280;43953;45.508;-122.806;2023-04-08T02:06:11;100578.06;;;14.59;49.99
50852;BME280;43953;45.508;-122.806;2023-04-08T02:06:43;100579.09;;;14.57;50.09
50852;BME280;43953;45.508;-122.806;2023-04-08T02:07:16;100577.22;;;14.58;50.23
50852;BME280;43953;45.508;-122.806;2023-04-08T02:07:48;100579.94;;;14.58;50.04
50852;BME280;43953;45.508;-122.806;2023-04-08T02:08:20;100578.28;;;14.57;50.24
50852;BME280;43953;45.508;-122.806;2023-04-08T02:08:54;100581.81;;;14.57;50.40
50852;BME280;43953;45.508;-122.806;2023-04-08T02:09:26;100577.22;;;14.58;50.64
50852;BME280;43953;45.508;-122.806;2023-04-08T02:09:58;100575.59;;;14.57;50.46
50852;BME280;43953;45.508;-122.806;2023-04-08T02:10:30;100580.41;;;14.55;50.23
50852;BME280;43953;45.508;-122.806;2023-04-08T02:11:02;100585.25;;;14.53;50.30
50852;BME280;43953;45.508;-122.806;2023-04-08T02:11:34;100583.59;;;14.52;50.28
50852;BME280;43953;45.508;-122.806;2023-04-08T02:12:06;100581.94;;;14.51;50.45
50852;BME280;43953;45.508;-122.806;2023-04-08T02:12:38;100583.00;;;14.50;50.61
50852;BME280;43953;45.508;-122.806;2023-04-08T02:13:10;100583.00;;;14.50;50.83
50852;BME280;43953;45.508;-122.806;2023-04-08T02:13:41;100579.47;;;14.49;50.89
50852;BME280;43953;45.508;-122.806;2023-04-08T02:14:13;100582.19;;;14.49;50.44
50852;BME280;43953;45.508;-122.806;2023-04-08T02:14:45;100582.19;;;14.49;50.38
50852;BME280;43953;45.508;-122.806;2023-04-08T02:15:17;100577.81;;;14.48;50.28
50852;BME280;43953;45.508;-122.806;2023-04-08T02:15:54;100588.63;;;14.48;49.88
50852;BME280;43953;45.508;-122.806;2023-04-08T02:16:39;100586.66;;;14.44;50.14
50852;BME280;43953;45.508;-122.806;2023-04-08T02:17:23;100592.31;;;14.42;50.09
50852;BME280;43953;45.508;-122.806;2023-04-08T02:18:10;100580.88;;;14.40;50.09
50852;BME280;43953;45.508;-122.806;2023-04-08T02:18:50;100591.38;;;14.37;50.11
50852;BME280;43953;45.508;-122.806;2023-04-08T02:19:29;100586.41;;;14.33;50.17
50852;BME280;43953;45.508;-122.806;2023-04-08T02:20:06;100592.09;;;14.32;50.06
50852;BME280;43953;45.508;-122.806;2023-04-08T02:20:52;100590.19;;;14.32;49.89
50852;BME280;43953;45.508;-122.806;2023-04-08T02:21:42;100586.66;;;14.32;49.98
50852;BME280;43953;45.508;-122.806;2023-04-08T02:22:27;100588.53;;;14.31;49.97
50852;BME280;43953;45.508;-122.806;2023-04-08T02:23:12;100595.84;;;14.31;50.37
50852;BME280;43953;45.508;-122.806;2023-04-08T02:23:48;100599.03;;;14.28;50.06
50852;BME280;43953;45.508;-122.806;2023-04-08T02:24:21;100598.44;;;14.26;50.12
50852;BME280;43953;45.508;-122.806;2023-04-08T02:24:53;100601.16;;;14.26;50.48
50852;BME280;43953;45.508;-122.806;2023-04-08T02:25:25;100596.78;;;14.25;50.40
50852;BME280;43953;45.508;-122.806;2023-04-08T02:26:00;100598.66;;;14.24;50.26
50852;BME280;43953;45.508;-122.806;2023-04-08T02:26:35;100595.16;;;14.24;50.22
50852;BME280;43953;45.508;-122.806;2023-04-08T02:27:09;100592.66;;;14.22;50.35
50852;BME280;43953;45.508;-122.806;2023-04-08T02:27:43;100602.66;;;14.22;50.25
50852;BME280;43953;45.508;-122.806;2023-04-08T02:28:17;100590.41;;;14.19;50.02
50852;BME280;43953;45.508;-122.806;2023-04-08T02:28:51;100606.66;;;14.19;50.14
50852;BME280;43953;45.508;-122.806;2023-04-08T02:29:24;100598.81;;;14.18;50.22
50852;BME280;43953;45.508;-122.806;2023-04-08T02:29:57;100599.63;;;14.18;49.92
50852;BME280;43953;45.508;-122.806;2023-04-08T02:30:31;100605.25;;;14.17;49.98
50852;BME280;43953;45.508;-122.806;2023-04-08T02:31:05;100600.09;;;14.15;50.14
50852;BME280;43953;45.508;-122.806;2023-04-08T02:31:40;100606.78;;;14.13;50.32
50852;BME280;43953;45.508;-122.806;2023-04-08T02:32:14;100600.78;;;14.10;50.42
50852;BME280;43953;45.508;-122.806;2023-04-08T02:32:47;100603.75;;;14.09;50.33
50852;BME280;43953;45.508;-122.806;2023-04-08T02:33:21;100603.75;;;14.09;50.39
50852;BME280;43953;45.508;-122.806;2023-04-08T02:33:53;100605.63;;;14.08;50.83
50852;BME280;43953;45.508;-122.806;2023-04-08T02:34:26;100596.69;;;14.08;50.65
50852;BME280;43953;45.508;-122.806;2023-04-08T02:35:02;100597.72;;;14.07;50.68
50852;BME280;43953;45.508;-122.806;2023-04-08T02:35:35;100598.78;;;14.06;50.92
50852;BME280;43953;45.508;-122.806;2023-04-08T02:36:07;100600.69;;;14.05;50.94
50852;BME280;43953;45.508;-122.806;2023-04-08T02:36:40;100599.84;;;14.05;50.78
50852;BME280;43953;45.508;-122.806;2023-04-08T02:37:13;100605.03;;;14.06;50.76
50852;BME280;43953;45.508;-122.806;2023-04-08T02:37:47;100601.72;;;14.04;50.69
50852;BME280;43953;45.508;-122.806;2023-04-08T02:38:20;100611.50;;;14.05;50.95
50852;BME280;43953;45.508;-122.806;2023-04-08T02:38:52;100608.81;;;14.05;50.31
50852;BME280;43953;45.508;-122.806;2023-04-08T02:39:32;100610.91;;;14.03;50.14
50852;BME280;43953;45.508;-122.806;2023-04-08T02:40:25;100611.97;;;14.02;50.45
50852;BME280;43953;45.508;-122.806;2023-04-08T02:40:57;100611.97;;;14.02;50.64
50852;BME280;43953;45.508;-122.806;2023-04-08T02:41:29;100607.59;;;14.01;50.71
50852;BME280;43953;45.508;-122.806;2023-04-08T02:42:03;100600.31;;;14.02;50.89
50852;BME280;43953;45.508;-122.806;2023-04-08T02:42:35;100606.56;;;14.02;50.71
50852;BME280;43953;45.508;-122.806;2023-04-08T02:43:07;100611.13;;;14.02;50.65
50852;BME280;43953;45.508;-122.806;2023-04-08T02:43:39;100614.91;;;14.01;50.73
50852;BME280;43953;45.508;-122.806;2023-04-08T02:44:10;100605.16;;;14.00;50.87
50852;BME280;43953;45.508;-122.806;2023-04-08T02:44:42;100606.19;;;13.99;50.82
50852;BME280;43953;45.508;-122.806;2023-04-08T02:45:14;100611.03;;;13.97;50.83
50852;BME280;43953;45.508;-122.806;2023-04-08T02:45:46;100608.53;;;13.95;50.86
50852;BME280;43953;45.508;-122.806;2023-04-08T02:46:17;100608.53;;;13.95;51.06
50852;BME280;43953;45.508;-122.806;2023-04-08T02:46:49;100611.25;;;13.95;51.22
50852;BME280;43953;45.508;-122.806;2023-04-08T02:47:21;100609.63;;;13.94;51.41
50852;BME280;43953;45.508;-122.806;2023-04-08T02:47:53;100610.91;;;13.92;51.40
50852;BME280;43953;45.508;-122.806;2023-04-08T02:48:25;100613.81;;;13.90;51.61
50852;BME280;43953;45.508;-122.806;2023-04-08T02:48:56;100615.50;;;13.91;51.67
50852;BME280;43953;45.508;-122.806;2023-04-08T02:49:28;100613.81;;;13.90;51.78
50852;BME280;43953;45.508;-122.806;2023-04-08T02:49:59;100609.47;;;13.89;52.03
50852;BME280;43953;45.508;-122.806;2023-04-08T02:50:31;100608.41;;;13.90;51.59
50852;BME280;43953;45.508;-122.806;2023-04-08T02:51:03;100609.72;;;13.87;51.78
50852;BME280;43953;45.508;-122.806;2023-04-08T02:51:34;100609.13;;;13.85;51.71
50852;BME280;43953;45.508;-122.806;2023-04-08T02:52:06;100603.13;;;13.83;51.94